createdAt,value
2019-05-07T00:02:06.603Z,101082.39
2019-05-07T00:04:35.941Z,101073.11
2019-05-07T00:07:05.473Z,101065.53
2019-05-07T00:09:35.108Z,101058.98
2019-05-07T00:12:43.873Z,101045.34
2019-05-07T00:15:54.060Z,101036.63
2019-05-07T00:21:37.772Z,101040.04
2019-05-07T00:24:46.703Z,101038.21
2019-05-07T00:27:55.641Z,101042.08
2019-05-07T00:36:43.979Z,101044.82
2019-05-07T00:39:32.765Z,101046.98
2019-05-07T00:42:22.694Z,101053.25
2019-05-07T00:48:02.906Z,101059.22
2019-05-07T00:50:35.625Z,101061.72
2019-05-07T00:53:44.888Z,101077.03
2019-05-07T00:59:28.996Z,101070.59
2019-05-07T01:05:27.008Z,101072.44
2019-05-07T01:11:13.196Z,101060.59
2019-05-07T01:16:44.667Z,101050.07
2019-05-07T01:19:14.065Z,101043.64
2019-05-07T01:22:22.765Z,101032.91
2019-05-07T01:27:42.844Z,101027.66
2019-05-07T01:30:14.594Z,101027.47
2019-05-07T01:36:05.529Z,101023.34
2019-05-07T01:41:52.303Z,101015.88
2019-05-07T01:44:22.117Z,101021.81
2019-05-07T01:46:53.038Z,101018.15
2019-05-07T01:51:59.694Z,101026.85
2019-05-07T01:54:29.420Z,101024.59
2019-05-07T01:57:17.803Z,101022.92
2019-05-07T02:03:23.108Z,101013.84
2019-05-07T02:06:13.189Z,101011.83
2019-05-07T02:09:03.316Z,101014.55
2019-05-07T02:14:46.854Z,101004.40
2019-05-07T02:17:16.604Z,101009.31
2019-05-07T02:19:46.099Z,101002.03
2019-05-07T02:25:12.653Z,101001.38
2019-05-07T02:30:57.645Z,101004.04
2019-05-07T02:34:06.351Z,100996.84
2019-05-07T02:39:33.296Z,101000.20
2019-05-07T02:45:03.724Z,101003.37
2019-05-07T02:54:13.428Z,100987.45
2019-05-07T02:56:43.175Z,100990.87
2019-05-07T02:59:13.608Z,100986.89
2019-05-07T03:01:44.591Z,100982.46
2019-05-07T03:04:14.179Z,100982.67
2019-05-07T03:06:44.253Z,100976.39
2019-05-07T03:12:16.658Z,100974.72
2019-05-07T03:14:46.205Z,100975.46
2019-05-07T03:17:15.741Z,100972.50
2019-05-07T03:20:24.548Z,100974.21
2019-05-07T03:26:14.435Z,100978.73
2019-05-07T03:29:03.945Z,100977.67
2019-05-07T03:31:56.235Z,100980.23
2019-05-07T03:34:46.719Z,100990.59
2019-05-07T03:39:55.215Z,100982.54
2019-05-07T03:42:24.805Z,100986.16
2019-05-07T03:45:13.829Z,100989.62
2019-05-07T03:47:48.086Z,100991.72
2019-05-07T03:50:17.640Z,100991.33
2019-05-07T03:52:47.120Z,100991.33
2019-05-07T03:55:16.785Z,100990.04
2019-05-07T03:58:25.578Z,100994.35
2019-05-07T04:03:56.235Z,100987.55
2019-05-07T04:07:05.000Z,100985.30
2019-05-07T04:10:15.444Z,100994.92
2019-05-07T04:12:46.378Z,100987.20
2019-05-07T04:15:55.115Z,100988.29
2019-05-07T04:18:24.653Z,100989.02
2019-05-07T04:20:54.337Z,100994.31
2019-05-07T04:29:15.838Z,100984.33
2019-05-07T04:31:45.881Z,100985.61
2019-05-07T04:37:23.784Z,100972.33
2019-05-07T04:40:13.513Z,100965.03
2019-05-07T04:42:43.069Z,100967.61
2019-05-07T04:45:53.723Z,100966.86
2019-05-07T04:48:23.760Z,100964.52
2019-05-07T04:51:08.669Z,100957.34
2019-05-07T04:53:38.226Z,100955.37
2019-05-07T04:56:07.849Z,100952.06
2019-05-07T04:58:37.762Z,100940.59
2019-05-07T05:03:44.558Z,100940.59
2019-05-07T05:06:14.067Z,100940.80
2019-05-07T05:08:43.837Z,100941.70
2019-05-07T05:11:15.383Z,100941.17
2019-05-07T05:16:54.482Z,100936.48
2019-05-07T05:19:23.873Z,100924.97
2019-05-07T05:22:12.800Z,100923.20
2019-05-07T05:27:36.045Z,100913.02
2019-05-07T05:33:23.477Z,100910.02
2019-05-07T05:35:53.141Z,100904.45
2019-05-07T05:38:22.702Z,100901.83
2019-05-07T05:40:52.302Z,100903.84
2019-05-07T05:43:42.874Z,100894.41
2019-05-07T05:46:13.574Z,100902.29
2019-05-07T05:51:59.356Z,100895.66
2019-05-07T05:54:32.666Z,100894.17
2019-05-07T06:00:53.022Z,100881.89
2019-05-07T06:03:53.882Z,100881.61
2019-05-07T06:06:43.298Z,100882.61
2019-05-07T06:17:45.826Z,100882.53
2019-05-07T06:23:36.280Z,100882.67
2019-05-07T06:29:02.456Z,100883.33
2019-05-07T06:31:33.957Z,100881.88
2019-05-07T06:34:03.377Z,100888.06
2019-05-07T06:40:02.639Z,100899.59
2019-05-07T06:42:54.929Z,100898.42
2019-05-07T06:50:59.395Z,100904.45
2019-05-07T06:56:44.844Z,100914.23
2019-05-07T06:59:54.059Z,100926.34
2019-05-07T07:08:12.489Z,100931.59
2019-05-07T07:11:02.735Z,100921.97
2019-05-07T07:14:11.966Z,100918.20
2019-05-07T07:16:43.026Z,100915.09
2019-05-07T07:19:53.685Z,100917.19
2019-05-07T07:22:23.880Z,100915.41
2019-05-07T07:24:53.392Z,100917.34
2019-05-07T07:27:23.010Z,100915.17
2019-05-07T07:32:49.173Z,100890.95
2019-05-07T07:35:19.630Z,100889.16
2019-05-07T07:38:28.460Z,100897.48
2019-05-07T07:47:14.701Z,100868.81
2019-05-07T07:52:42.027Z,100871.64
2019-05-07T07:58:46.825Z,100872.27
2019-05-07T08:07:15.209Z,100859.25
2019-05-07T08:09:44.725Z,100853.84
2019-05-07T08:15:35.048Z,100849.05
2019-05-07T08:21:29.769Z,100848.14
2019-05-07T08:24:02.734Z,100847.21
2019-05-07T08:26:32.516Z,100848.06
2019-05-07T08:32:35.169Z,100837.72
2019-05-07T08:35:44.127Z,100840.87
2019-05-07T08:50:57.875Z,100803.69
2019-05-07T08:53:27.401Z,100805.36
2019-05-07T08:59:57.445Z,100797.09
2019-05-07T09:02:21.777Z,100798.43
2019-05-07T09:04:52.230Z,100804.22
2019-05-07T09:08:02.256Z,100813.00
2019-05-07T09:10:32.727Z,100798.95
2019-05-07T09:13:04.216Z,100801.45
2019-05-07T09:18:48.828Z,100801.97
2019-05-07T09:21:18.260Z,100804.11
2019-05-07T09:27:02.990Z,100799.09
2019-05-07T09:38:06.554Z,100800.97
2019-05-07T09:43:45.004Z,100813.12
2019-05-07T09:46:14.504Z,100813.75
2019-05-07T09:48:43.856Z,100814.97
2019-05-07T09:51:52.633Z,100806.33
2019-05-07T09:54:23.106Z,100808.67
2019-05-07T09:57:34.745Z,100804.24
2019-05-07T10:09:02.952Z,100785.61
2019-05-07T10:14:57.360Z,100796.89
2019-05-07T10:20:42.251Z,100785.67
2019-05-07T10:26:22.554Z,100774.69
2019-05-07T10:32:06.687Z,100763.02
2019-05-07T10:34:36.107Z,100772.45
2019-05-07T10:37:05.699Z,100768.55
2019-05-07T10:39:35.124Z,100772.50
2019-05-07T10:42:04.673Z,100771.77
2019-05-07T10:47:48.930Z,100769.23
2019-05-07T10:50:39.319Z,100777.00
2019-05-07T10:53:09.400Z,100775.19
2019-05-07T10:55:39.004Z,100775.45
2019-05-07T10:58:08.515Z,100773.49
2019-05-07T11:09:37.934Z,100769.50
2019-05-07T11:12:07.594Z,100761.78
2019-05-07T11:14:37.045Z,100758.69
2019-05-07T11:20:03.409Z,100749.88
2019-05-07T11:23:12.211Z,100755.50
2019-05-07T11:25:42.159Z,100758.16
2019-05-07T11:28:13.530Z,100770.80
2019-05-07T11:30:43.408Z,100762.59
2019-05-07T11:33:13.070Z,100758.98
2019-05-07T11:35:44.139Z,100745.25
2019-05-07T11:38:53.968Z,100743.44
2019-05-07T11:41:42.877Z,100737.94
2019-05-07T11:44:18.154Z,100722.41
2019-05-07T11:47:06.481Z,100717.53
2019-05-07T11:55:52.290Z,100700.70
2019-05-07T11:58:22.115Z,100700.55
2019-05-07T12:06:32.158Z,100701.45
2019-05-07T12:12:06.856Z,100690.75
2019-05-07T12:14:36.210Z,100683.20
2019-05-07T12:17:44.892Z,100688.73
2019-05-07T12:23:12.141Z,100685.52
2019-05-07T12:25:42.899Z,100682.09
2019-05-07T12:28:13.246Z,100678.58
2019-05-07T12:31:12.161Z,100671.10
2019-05-07T12:34:02.418Z,100671.50
2019-05-07T12:36:39.939Z,100663.29
2019-05-07T12:39:10.107Z,100668.34
2019-05-07T12:41:41.735Z,100666.34
2019-05-07T12:44:12.976Z,100661.85
2019-05-07T12:46:42.477Z,100659.62
2019-05-07T12:49:12.204Z,100655.58
2019-05-07T12:51:56.236Z,100646.98
2019-05-07T12:57:34.633Z,100642.45
2019-05-07T13:03:21.829Z,100626.98
2019-05-07T13:05:52.055Z,100622.60
2019-05-07T13:08:23.009Z,100608.61
2019-05-07T13:10:52.784Z,100608.14
2019-05-07T13:13:22.244Z,100602.45
2019-05-07T13:15:51.852Z,100596.61
2019-05-07T13:18:23.263Z,100590.20
2019-05-07T13:23:42.211Z,100576.70
2019-05-07T13:26:12.637Z,100495.06
2019-05-07T13:28:44.389Z,100570.76
2019-05-07T13:31:13.558Z,100567.98
2019-05-07T13:34:22.932Z,100568.69
2019-05-07T13:37:15.087Z,100567.08
2019-05-07T13:39:55.643Z,100555.73
2019-05-07T13:42:44.119Z,100553.94
2019-05-07T13:45:22.431Z,100567.59
2019-05-07T13:47:58.312Z,100584.23
2019-05-07T13:50:27.821Z,100574.58
2019-05-07T13:52:57.570Z,100577.17
2019-05-07T13:55:26.944Z,100572.84
2019-05-07T13:57:56.644Z,100562.33
2019-05-07T14:06:33.817Z,100556.67
2019-05-07T14:12:06.147Z,100543.66
2019-05-07T14:20:42.481Z,100531.71
2019-05-07T14:23:14.160Z,100536.28
2019-05-07T14:25:54.748Z,100531.64
2019-05-07T14:28:24.351Z,100544.05
2019-05-07T14:30:53.733Z,100543.11
2019-05-07T14:33:41.376Z,100539.16
2019-05-07T14:36:27.530Z,100534.52
2019-05-07T14:38:56.907Z,100534.11
2019-05-07T14:41:26.863Z,100530.98
2019-05-07T14:46:50.419Z,100530.95
2019-05-07T14:49:12.716Z,100520.95
2019-05-07T14:51:42.220Z,100514.69
2019-05-07T14:54:12.352Z,100521.70
2019-05-07T14:59:57.839Z,100520.93
2019-05-07T15:05:23.145Z,100510.09
2019-05-07T15:10:56.157Z,100506.72
2019-05-07T15:13:25.861Z,100509.45
2019-05-07T15:15:55.286Z,100507.11
2019-05-07T15:18:43.618Z,100502.41
2019-05-07T15:27:16.800Z,100491.77
2019-05-07T15:29:46.313Z,100489.80
2019-05-07T15:32:15.730Z,100469.03
2019-05-07T15:34:45.209Z,100477.94
2019-05-07T15:37:14.718Z,100477.95
2019-05-07T15:40:23.402Z,100475.23
2019-05-07T15:43:32.505Z,100444.34
2019-05-07T15:46:04.281Z,100457.33
2019-05-07T15:48:33.712Z,100455.16
2019-05-07T15:51:03.083Z,100448.53
2019-05-07T15:53:52.166Z,100441.91
2019-05-07T15:56:22.025Z,100449.42
2019-05-07T16:05:02.193Z,100435.31
2019-05-07T16:07:32.851Z,100436.13
2019-05-07T16:16:21.554Z,100432.04
2019-05-07T16:19:23.323Z,100428.86
2019-05-07T16:22:32.816Z,100433.34
2019-05-07T16:28:29.567Z,100424.92
2019-05-07T16:31:00.099Z,100419.74
2019-05-07T16:33:29.517Z,100394.30
2019-05-07T16:35:59.142Z,100426.80
2019-05-07T16:44:52.322Z,100419.66
2019-05-07T16:47:22.829Z,100423.93
2019-05-07T16:50:13.077Z,100417.67
2019-05-07T16:52:44.393Z,100417.67
2019-05-07T16:58:48.206Z,100416.77
2019-05-07T17:01:37.443Z,100414.60
2019-05-07T17:07:10.699Z,100416.40
2019-05-07T17:09:40.122Z,100416.59
2019-05-07T17:15:02.754Z,100414.88
2019-05-07T17:17:32.118Z,100412.33
2019-05-07T17:20:02.771Z,100407.53
2019-05-07T17:22:32.510Z,100402.94
2019-05-07T17:34:11.634Z,100394.59
2019-05-07T17:40:06.590Z,100392.38
2019-05-07T17:45:26.502Z,100392.65
2019-05-07T17:47:56.245Z,100390.31
2019-05-07T17:53:06.133Z,100389.80
2019-05-07T17:55:35.776Z,100395.73
2019-05-07T18:03:39.404Z,100391.73
2019-05-07T18:06:09.821Z,100391.56
2019-05-07T18:08:42.539Z,100393.90
2019-05-07T18:11:21.018Z,100392.20
2019-05-07T18:13:43.235Z,100388.82
2019-05-07T18:22:09.525Z,100375.90
2019-05-07T18:24:38.941Z,100373.91
2019-05-07T18:29:58.670Z,100369.13
2019-05-07T18:32:36.746Z,100358.70
2019-05-07T18:38:16.011Z,100352.34
2019-05-07T18:40:45.396Z,100355.44
2019-05-07T18:43:14.862Z,100355.61
2019-05-07T18:45:44.997Z,100346.08
2019-05-07T18:48:14.419Z,100347.85
2019-05-07T18:50:45.187Z,100336.39
2019-05-07T18:53:14.777Z,100335.75
2019-05-07T18:55:44.579Z,100212.14
2019-05-07T18:58:54.722Z,100272.53
2019-05-07T19:01:26.145Z,100318.77
2019-05-07T19:03:56.269Z,100312.50
2019-05-07T19:06:25.678Z,100315.77
2019-05-07T19:08:55.118Z,100311.19
2019-05-07T19:11:24.614Z,100303.40
2019-05-07T19:19:33.001Z,100297.52
2019-05-07T19:22:02.373Z,100292.14
2019-05-07T19:24:44.711Z,100299.75
2019-05-07T19:27:02.876Z,100305.17
2019-05-07T19:29:32.753Z,100301.14
2019-05-07T19:32:14.953Z,100301.21
2019-05-07T19:37:53.335Z,100296.02
2019-05-07T19:40:42.053Z,100296.44
2019-05-07T19:43:14.313Z,100300.38
2019-05-07T19:46:03.276Z,100303.36
2019-05-07T19:48:33.981Z,100293.16
2019-05-07T19:51:03.351Z,100292.39
2019-05-07T19:53:32.886Z,100292.30
2019-05-07T19:56:11.068Z,100279.88
2019-05-07T19:58:41.959Z,100277.84
2019-05-07T20:01:13.491Z,100276.31
2019-05-07T20:03:43.533Z,100264.44
2019-05-07T20:06:13.124Z,100263.48
2019-05-07T20:09:21.818Z,100257.84
2019-05-07T20:14:47.613Z,100251.63
2019-05-07T20:17:56.482Z,100251.37
2019-05-07T20:20:26.094Z,100246.70
2019-05-07T20:22:55.473Z,100244.02
2019-05-07T20:26:05.339Z,100241.33
2019-05-07T20:28:36.340Z,100244.67
2019-05-07T20:31:05.930Z,100244.25
2019-05-07T20:33:35.853Z,100245.95
2019-05-07T20:42:07.894Z,100227.74
2019-05-07T20:45:17.084Z,100211.95
2019-05-07T20:50:37.061Z,100222.77
2019-05-07T20:58:40.318Z,100229.15
2019-05-07T21:01:09.713Z,100223.53
2019-05-07T21:03:39.897Z,100218.88
2019-05-07T21:08:46.532Z,100213.37
2019-05-07T21:11:15.956Z,100211.30
2019-05-07T21:13:45.505Z,100221.84
2019-05-07T21:16:15.584Z,100214.11
2019-05-07T21:18:45.312Z,100209.64
2019-05-07T21:21:14.827Z,100204.48
2019-05-07T21:23:44.320Z,100204.95
2019-05-07T21:26:13.950Z,100202.52
2019-05-07T21:28:43.602Z,100200.06
2019-05-07T21:31:13.136Z,100193.55
2019-05-07T21:36:38.298Z,100187.77
2019-05-07T21:42:35.902Z,100173.17
2019-05-07T21:48:22.133Z,100163.28
2019-05-07T21:51:12.171Z,100159.13
2019-05-07T21:57:02.332Z,100149.33
2019-05-07T22:08:21.899Z,100145.91
2019-05-07T22:10:52.554Z,100145.80
2019-05-07T22:13:22.233Z,100147.11
2019-05-07T22:22:34.564Z,100138.53
2019-05-07T22:25:05.276Z,100141.75
2019-05-07T22:27:34.901Z,100145.91
2019-05-07T22:30:44.051Z,100140.49
2019-05-07T22:39:37.347Z,100133.25
2019-05-07T22:44:58.134Z,100124.25
2019-05-07T22:47:27.670Z,100131.44
2019-05-07T22:49:57.442Z,100130.70
2019-05-07T22:52:27.031Z,100133.86
2019-05-07T22:58:32.447Z,100132.82
2019-05-07T23:04:12.118Z,100123.83
2019-05-07T23:06:41.577Z,100122.45
2019-05-07T23:12:14.554Z,100113.94
2019-05-07T23:18:32.725Z,100101.20
2019-05-07T23:21:02.706Z,100105.64
2019-05-07T23:24:11.443Z,100097.96
2019-05-07T23:26:50.277Z,100099.72
2019-05-07T23:29:12.805Z,100098.27
2019-05-07T23:31:42.322Z,100096.95
2019-05-07T23:37:22.465Z,100096.03
2019-05-07T23:46:08.555Z,100086.12
2019-05-07T23:48:37.896Z,100079.14
2019-05-07T23:51:47.749Z,100079.60
2019-05-07T23:54:17.264Z,100082.59
2019-05-07T23:56:46.619Z,100074.63
